createdAt,value
2019-04-30T00:04:41.041Z,5
2019-04-30T00:09:29.522Z,5.9
2019-04-30T00:14:17.057Z,5.4
2019-04-30T00:19:06.022Z,6
2019-04-30T00:23:53.489Z,4.9
2019-04-30T00:28:44.394Z,5.6
2019-04-30T00:33:35.330Z,5.6
2019-04-30T00:38:22.555Z,5.2
2019-04-30T00:43:11.819Z,5.5
2019-04-30T00:47:59.417Z,5.5
2019-04-30T00:52:46.977Z,5.5
2019-04-30T00:57:38.818Z,5.8
2019-04-30T01:02:32.083Z,5.8
2019-04-30T01:07:19.722Z,5.6
2019-04-30T01:12:06.566Z,5.6
2019-04-30T01:16:53.403Z,5.6
2019-04-30T01:26:33.685Z,5.7
2019-04-30T01:31:21.152Z,6.2
2019-04-30T01:36:13.122Z,5.7
2019-04-30T01:41:01.437Z,6.2
2019-04-30T01:45:48.729Z,5.9
2019-04-30T01:52:03.681Z,5.2
2019-04-30T01:56:50.702Z,5.5
2019-04-30T02:01:39.041Z,5.5
2019-04-30T02:06:25.864Z,6.2
2019-04-30T02:11:13.284Z,5.8
2019-04-30T02:16:00.689Z,5.4
2019-04-30T02:20:49.644Z,6
2019-04-30T02:25:37.125Z,5.8
2019-04-30T02:30:23.900Z,6.1
2019-04-30T02:38:29.322Z,5.2
2019-04-30T02:43:20.320Z,5.7
2019-04-30T02:48:11.418Z,5.6
2019-04-30T02:53:00.232Z,6
2019-04-30T02:57:50.273Z,6
2019-04-30T03:02:39.456Z,5.3
2019-04-30T03:07:29.377Z,6.4
2019-04-30T03:13:43.163Z,5.3
2019-04-30T03:18:30.590Z,5.8
2019-04-30T03:23:19.573Z,6.1
2019-04-30T03:28:09.732Z,5.7
2019-04-30T03:33:02.097Z,5.8
2019-04-30T03:37:50.627Z,6.1
2019-04-30T03:45:52.216Z,5.5
2019-04-30T03:50:50.226Z,5.2
2019-04-30T03:55:42.353Z,5.9
2019-04-30T04:00:29.984Z,6
2019-04-30T04:05:19.998Z,6.3
2019-04-30T04:10:10.062Z,6.2
2019-04-30T04:16:53.870Z,5.5
2019-04-30T04:21:40.705Z,5.7
2019-04-30T04:26:29.813Z,5.6
2019-04-30T04:31:19.093Z,5.5
2019-04-30T04:36:09.261Z,5.8
2019-04-30T04:40:56.616Z,6.3
2019-04-30T04:48:32.723Z,5.7
2019-04-30T04:53:20.610Z,5.3
2019-04-30T04:58:09.734Z,5.8
2019-04-30T05:03:01.004Z,6.2
2019-04-30T05:07:48.662Z,6.7
2019-04-30T05:12:37.973Z,6.7
2019-04-30T05:21:23.441Z,5.5
2019-04-30T05:26:11.140Z,5.8
2019-04-30T05:30:59.397Z,6.1
2019-04-30T05:35:46.943Z,5.7
2019-04-30T05:40:33.963Z,6.3
2019-04-30T05:45:20.721Z,6.4
2019-04-30T05:50:09.113Z,6.6
2019-04-30T05:57:05.517Z,5.6
2019-04-30T06:01:54.542Z,5.7
2019-04-30T06:06:44.025Z,6
2019-04-30T06:11:32.673Z,5.7
2019-04-30T06:16:19.611Z,6
2019-04-30T06:21:06.562Z,6.3
2019-04-30T06:25:57.310Z,6
2019-04-30T06:30:49.294Z,6
2019-04-30T06:35:36.914Z,6.3
2019-04-30T06:40:24.113Z,6.2
2019-04-30T06:45:11.343Z,6.7
2019-04-30T06:51:22.403Z,5.8
2019-04-30T06:56:10.544Z,6.1
2019-04-30T07:00:59.568Z,5.8
2019-04-30T07:05:48.784Z,5.9
2019-04-30T07:10:37.227Z,6.3
2019-04-30T07:15:25.784Z,6.5
2019-04-30T07:20:14.020Z,6.5
2019-04-30T07:25:01.402Z,6.7
2019-04-30T07:29:49.630Z,6.3
2019-04-30T07:34:37.265Z,5.9
2019-04-30T07:39:31.297Z,6.3
2019-04-30T07:44:31.037Z,6.7
2019-04-30T07:49:22.862Z,7.2
2019-04-30T07:54:09.594Z,7.2
2019-04-30T07:58:56.833Z,6.9
2019-04-30T08:03:44.301Z,7.4
2019-04-30T08:08:32.194Z,7
2019-04-30T08:13:21.751Z,6.5
2019-04-30T08:18:09.963Z,6.6
2019-04-30T08:22:57.011Z,6.6
2019-04-30T08:27:43.734Z,5.9
2019-04-30T08:32:32.962Z,6
2019-04-30T08:37:20.642Z,6.1
2019-04-30T08:42:09.565Z,5.7
2019-04-30T08:46:56.586Z,5.7
2019-04-30T08:51:43.777Z,5.4
2019-04-30T08:56:31.633Z,5.2
2019-04-30T09:01:19.684Z,4.5
2019-04-30T09:06:09.317Z,5.3
2019-04-30T09:10:56.505Z,4.8
2019-04-30T09:15:44.448Z,5.4
2019-04-30T09:20:32.501Z,4.7
2019-04-30T09:25:20.141Z,4.5
2019-04-30T09:30:10.208Z,5.1
2019-04-30T09:34:58.754Z,4.6
2019-04-30T09:39:46.176Z,4.5
2019-04-30T09:44:33.130Z,5
2019-04-30T09:49:20.456Z,4.4
2019-04-30T09:54:11.895Z,4.4
2019-04-30T09:58:59.932Z,4.8
2019-04-30T10:03:47.070Z,4.8
2019-04-30T10:08:46.118Z,4.6
2019-04-30T10:13:37.090Z,4.5
2019-04-30T10:18:25.320Z,4.6
2019-04-30T10:23:12.365Z,4.6
2019-04-30T10:27:59.784Z,4.7
2019-04-30T10:32:50.032Z,4.8
2019-04-30T10:37:38.753Z,5
2019-04-30T10:42:26.440Z,4.7
2019-04-30T10:47:14.261Z,4.4
2019-04-30T10:52:01.706Z,5.4
2019-04-30T10:56:51.424Z,5.2
2019-04-30T11:01:39.242Z,4.8
2019-04-30T11:06:28.469Z,4.9
2019-04-30T11:11:15.868Z,4.7
2019-04-30T11:16:12.041Z,5.1
2019-04-30T11:21:00.656Z,5.2
2019-04-30T11:25:50.427Z,5
2019-04-30T11:30:39.440Z,4.9
2019-04-30T11:35:27.248Z,5
2019-04-30T11:40:14.442Z,5
2019-04-30T11:45:02.160Z,5
2019-04-30T11:49:49.417Z,5.6
2019-04-30T11:54:48.246Z,4.6
2019-04-30T11:59:39.539Z,4.9
2019-04-30T12:04:29.697Z,5.3
2019-04-30T12:09:18.500Z,5.1
2019-04-30T12:14:07.793Z,5.1
2019-04-30T12:18:55.404Z,5.3
2019-04-30T12:23:42.723Z,5.2
2019-04-30T12:28:30.541Z,5.1
2019-04-30T12:33:19.176Z,5.5
2019-04-30T12:38:06.226Z,4.9
2019-04-30T12:42:53.211Z,4.8
2019-04-30T12:47:40.510Z,5
2019-04-30T12:52:29.573Z,4.9
2019-04-30T12:57:19.203Z,5.1
2019-04-30T13:02:08.999Z,4.7
2019-04-30T13:06:56.589Z,4.8
2019-04-30T13:11:45.041Z,4.5
2019-04-30T13:16:33.318Z,4.8
2019-04-30T13:21:20.268Z,4.3
2019-04-30T13:26:09.195Z,4.7
2019-04-30T13:30:56.279Z,4.5
2019-04-30T13:35:45.651Z,4.5
2019-04-30T13:40:32.852Z,4.5
2019-04-30T13:45:20.801Z,4.1
2019-04-30T13:50:09.314Z,4.3
2019-04-30T13:54:59.225Z,4.3
2019-04-30T13:59:46.313Z,4
2019-04-30T14:04:33.657Z,4.6
2019-04-30T14:09:21.152Z,4.5
2019-04-30T14:14:08.944Z,4.1
2019-04-30T14:18:56.196Z,3.6
2019-04-30T14:23:43.091Z,3.8
2019-04-30T14:28:30.699Z,3.9
2019-04-30T14:33:26.321Z,3.8
2019-04-30T14:38:13.819Z,4.1
2019-04-30T14:43:02.516Z,3.8
2019-04-30T14:47:51.846Z,3.8
2019-04-30T14:52:40.404Z,4.3
2019-04-30T14:57:27.808Z,3.7
2019-04-30T15:02:14.821Z,4.1
2019-04-30T15:07:01.889Z,4
2019-04-30T15:11:49.695Z,3.8
2019-04-30T15:16:38.835Z,4.1
2019-04-30T15:21:26.057Z,3.9
2019-04-30T15:26:22.205Z,4.3
2019-04-30T15:31:12.802Z,4.4
2019-04-30T15:35:59.982Z,4
2019-04-30T15:40:47.389Z,3.5
2019-04-30T15:45:35.013Z,3.8
2019-04-30T15:50:21.931Z,3.2
2019-04-30T15:55:12.271Z,3.9
2019-04-30T16:00:01.440Z,3.9
2019-04-30T16:04:49.203Z,3.9
2019-04-30T16:09:38.459Z,3.8
2019-04-30T16:14:26.333Z,3.7
2019-04-30T16:19:14.371Z,4.2
2019-04-30T16:24:01.537Z,4
2019-04-30T16:28:50.566Z,3.6
2019-04-30T16:33:39.362Z,3.4
2019-04-30T16:38:28.849Z,3.4
2019-04-30T16:43:16.093Z,5
2019-04-30T16:48:03.451Z,3.1
2019-04-30T16:52:51.038Z,3.5
2019-04-30T16:57:39.692Z,4
2019-04-30T17:02:27.071Z,3.7
2019-04-30T17:07:15.778Z,3.8
2019-04-30T17:12:03.768Z,5.9
2019-04-30T17:16:56.172Z,4.8
2019-04-30T17:21:43.312Z,3.6
2019-04-30T17:26:31.095Z,3.4
2019-04-30T17:31:17.950Z,3.7
2019-04-30T17:36:08.712Z,4.4
2019-04-30T17:40:58.399Z,3.7
2019-04-30T17:45:45.223Z,3.6
2019-04-30T17:50:32.278Z,3.8
2019-04-30T17:55:19.571Z,4
2019-04-30T18:00:16.979Z,4
2019-04-30T18:05:06.593Z,3.9
2019-04-30T18:09:54.432Z,3.9
2019-04-30T18:14:42.134Z,3.7
2019-04-30T18:19:29.507Z,5.1
2019-04-30T18:24:19.503Z,4.5
2019-04-30T18:29:06.459Z,4.7
2019-04-30T18:33:55.856Z,4.7
2019-04-30T18:38:43.075Z,5
2019-04-30T18:43:29.948Z,5.1
2019-04-30T18:48:16.922Z,5.5
2019-04-30T18:53:04.260Z,5.1
2019-04-30T18:57:56.874Z,4.7
2019-04-30T19:02:43.932Z,4.9
2019-04-30T19:07:31.680Z,4.8
2019-04-30T19:12:19.414Z,4.7
2019-04-30T19:17:06.961Z,5.4
2019-04-30T19:21:53.846Z,5.6
2019-04-30T19:26:40.608Z,5.1
2019-04-30T19:31:30.243Z,5.6
2019-04-30T19:36:20.329Z,4.6
2019-04-30T19:41:10.838Z,4.8
2019-04-30T19:45:59.176Z,5.3
2019-04-30T19:50:48.844Z,4.4
2019-04-30T19:55:35.866Z,4
2019-04-30T20:00:23.164Z,4
2019-04-30T20:05:10.314Z,4.8
2019-04-30T20:10:03.536Z,4.4
2019-04-30T20:14:51.318Z,4.9
2019-04-30T20:19:38.814Z,5.4
2019-04-30T20:24:26.528Z,4.6
2019-04-30T20:29:13.428Z,5.2
2019-04-30T20:34:01.427Z,5.1
2019-04-30T20:38:48.840Z,5.2
2019-04-30T20:43:35.914Z,4.6
2019-04-30T20:48:22.655Z,5.1
2019-04-30T20:53:10.767Z,4.7
2019-04-30T20:57:59.453Z,5.2
2019-04-30T21:02:48.572Z,5.8
2019-04-30T21:07:35.626Z,5.8
2019-04-30T21:12:22.564Z,5.3
2019-04-30T21:17:09.635Z,5.4
2019-04-30T21:21:56.394Z,5.3
2019-04-30T21:26:43.459Z,5.5
2019-04-30T21:31:30.281Z,5.4
2019-04-30T21:36:18.935Z,5.5
2019-04-30T21:41:06.379Z,5.5
2019-04-30T21:45:54.522Z,5.3
2019-04-30T21:50:41.733Z,5.8
2019-04-30T21:55:29.584Z,5.4
2019-04-30T22:00:18.456Z,5.1
2019-04-30T22:05:05.601Z,5.5
2019-04-30T22:09:54.316Z,5.7
2019-04-30T22:14:41.362Z,5.6
2019-04-30T22:19:28.378Z,6.1
2019-04-30T22:24:15.741Z,5.9
2019-04-30T22:29:03.412Z,5.8
2019-04-30T22:33:51.885Z,6
2019-04-30T22:38:39.106Z,5.9
2019-04-30T22:43:26.065Z,6
2019-04-30T22:48:13.095Z,5.7
2019-04-30T22:52:59.915Z,5.8
2019-04-30T22:57:47.560Z,5.8
2019-04-30T23:02:34.829Z,5.8
2019-04-30T23:07:21.626Z,5.8
2019-04-30T23:12:14.318Z,5.4
2019-04-30T23:17:01.822Z,5.3
2019-04-30T23:21:48.683Z,5.3
2019-04-30T23:26:35.462Z,5.3
2019-04-30T23:31:22.508Z,5.6
2019-04-30T23:36:11.251Z,5.3
2019-04-30T23:41:00.784Z,6
2019-04-30T23:45:47.951Z,5.8
2019-04-30T23:50:35.211Z,5.8
2019-04-30T23:55:24.106Z,5.6
